sensor_id;sensor_type;location;lat;lon;timestamp;temperature;humidity
55313;DHT22;46892;45.668;11.756;2023-02-21T00:01:33;5.80;82.50
55313;DHT22;46892;45.668;11.756;2023-02-21T00:04:17;5.90;82.30
55313;DHT22;46892;45.668;11.756;2023-02-21T00:07:01;6.00;82.40
55313;DHT22;46892;45.668;11.756;2023-02-21T00:09:46;5.90;82.10
55313;DHT22;46892;45.668;11.756;2023-02-21T00:12:30;5.90;81.70
55313;DHT22;46892;45.668;11.756;2023-02-21T00:15:15;5.80;81.70
55313;DHT22;46892;45.668;11.756;2023-02-21T00:17:59;5.90;82.10
55313;DHT22;46892;45.668;11.756;2023-02-21T00:20:43;5.80;81.70
55313;DHT22;46892;45.668;11.756;2023-02-21T00:23:27;5.60;82.70
55313;DHT22;46892;45.668;11.756;2023-02-21T00:26:17;5.50;83.70
55313;DHT22;46892;45.668;11.756;2023-02-21T00:29:01;5.40;84.00
55313;DHT22;46892;45.668;11.756;2023-02-21T00:31:45;5.50;84.10
55313;DHT22;46892;45.668;11.756;2023-02-21T00:34:29;5.50;84.20
55313;DHT22;46892;45.668;11.756;2023-02-21T00:37:14;5.40;84.50
55313;DHT22;46892;45.668;11.756;2023-02-21T00:39:58;5.50;84.70
55313;DHT22;46892;45.668;11.756;2023-02-21T00:42:42;5.60;84.30
55313;DHT22;46892;45.668;11.756;2023-02-21T00:45:26;5.70;83.60
55313;DHT22;46892;45.668;11.756;2023-02-21T00:48:10;5.90;82.80
55313;DHT22;46892;45.668;11.756;2023-02-21T00:50:54;5.90;82.80
55313;DHT22;46892;45.668;11.756;2023-02-21T00:53:38;6.00;82.00
55313;DHT22;46892;45.668;11.756;2023-02-21T00:56:22;5.80;83.10
55313;DHT22;46892;45.668;11.756;2023-02-21T00:59:06;5.80;82.90
55313;DHT22;46892;45.668;11.756;2023-02-21T01:01:50;5.60;81.70
55313;DHT22;46892;45.668;11.756;2023-02-21T01:04:34;5.50;82.80
55313;DHT22;46892;45.668;11.756;2023-02-21T01:07:18;5.50;83.60
55313;DHT22;46892;45.668;11.756;2023-02-21T01:10:02;5.50;84.00
55313;DHT22;46892;45.668;11.756;2023-02-21T01:12:46;5.60;84.00
55313;DHT22;46892;45.668;11.756;2023-02-21T01:15:30;5.50;84.00
55313;DHT22;46892;45.668;11.756;2023-02-21T01:18:14;5.60;84.20
55313;DHT22;46892;45.668;11.756;2023-02-21T01:20:58;5.50;83.90
55313;DHT22;46892;45.668;11.756;2023-02-21T01:23:42;5.40;84.30
55313;DHT22;46892;45.668;11.756;2023-02-21T01:26:26;5.50;84.40
55313;DHT22;46892;45.668;11.756;2023-02-21T01:29:10;5.60;84.50
55313;DHT22;46892;45.668;11.756;2023-02-21T01:31:54;5.50;83.90
55313;DHT22;46892;45.668;11.756;2023-02-21T01:34:39;5.50;83.90
55313;DHT22;46892;45.668;11.756;2023-02-21T01:37:22;5.50;84.10
55313;DHT22;46892;45.668;11.756;2023-02-21T01:40:07;5.50;84.00
55313;DHT22;46892;45.668;11.756;2023-02-21T01:42:52;5.40;84.30
55313;DHT22;46892;45.668;11.756;2023-02-21T01:45:43;5.40;84.50
55313;DHT22;46892;45.668;11.756;2023-02-21T01:48:29;5.40;84.60
55313;DHT22;46892;45.668;11.756;2023-02-21T01:51:17;5.40;84.70
55313;DHT22;46892;45.668;11.756;2023-02-21T01:54:03;5.50;84.70
55313;DHT22;46892;45.668;11.756;2023-02-21T01:56:47;5.40;84.50
55313;DHT22;46892;45.668;11.756;2023-02-21T01:59:32;5.40;84.40
55313;DHT22;46892;45.668;11.756;2023-02-21T02:05:05;5.40;85.00
55313;DHT22;46892;45.668;11.756;2023-02-21T02:07:50;5.50;84.90
55313;DHT22;46892;45.668;11.756;2023-02-21T02:10:35;5.40;85.00
55313;DHT22;46892;45.668;11.756;2023-02-21T02:16:35;5.40;85.10
55313;DHT22;46892;45.668;11.756;2023-02-21T02:23:17;5.30;85.50
55313;DHT22;46892;45.668;11.756;2023-02-21T02:31:04;5.30;86.10
55313;DHT22;46892;45.668;11.756;2023-02-21T02:34:02;5.40;86.10
55313;DHT22;46892;45.668;11.756;2023-02-21T02:36:39;5.50;85.70
55313;DHT22;46892;45.668;11.756;2023-02-21T02:39:34;5.30;84.30
55313;DHT22;46892;45.668;11.756;2023-02-21T02:45:00;5.20;84.00
55313;DHT22;46892;45.668;11.756;2023-02-21T02:47:35;5.10;84.10
55313;DHT22;46892;45.668;11.756;2023-02-21T02:50:03;5.00;83.80
55313;DHT22;46892;45.668;11.756;2023-02-21T02:52:29;4.90;85.30
55313;DHT22;46892;45.668;11.756;2023-02-21T02:57:45;5.00;86.00
55313;DHT22;46892;45.668;11.756;2023-02-21T03:00:13;5.00;85.40
55313;DHT22;46892;45.668;11.756;2023-02-21T03:02:51;5.10;85.30
55313;DHT22;46892;45.668;11.756;2023-02-21T03:13:36;5.30;84.50
55313;DHT22;46892;45.668;11.756;2023-02-21T03:21:24;5.20;86.60
55313;DHT22;46892;45.668;11.756;2023-02-21T03:23:53;5.20;86.60
55313;DHT22;46892;45.668;11.756;2023-02-21T03:26:20;5.30;86.00
55313;DHT22;46892;45.668;11.756;2023-02-21T03:28:46;5.30;85.90
55313;DHT22;46892;45.668;11.756;2023-02-21T03:31:13;5.30;85.40
55313;DHT22;46892;45.668;11.756;2023-02-21T03:33:40;5.30;85.00
55313;DHT22;46892;45.668;11.756;2023-02-21T03:36:07;5.30;84.60
55313;DHT22;46892;45.668;11.756;2023-02-21T03:38:34;5.30;84.40
55313;DHT22;46892;45.668;11.756;2023-02-21T03:40:59;5.30;84.70
55313;DHT22;46892;45.668;11.756;2023-02-21T03:43:25;5.20;84.90
55313;DHT22;46892;45.668;11.756;2023-02-21T03:45:51;5.30;85.20
55313;DHT22;46892;45.668;11.756;2023-02-21T03:48:17;5.20;84.90
55313;DHT22;46892;45.668;11.756;2023-02-21T03:50:42;5.20;84.50
55313;DHT22;46892;45.668;11.756;2023-02-21T03:53:09;5.20;84.10
55313;DHT22;46892;45.668;11.756;2023-02-21T03:55:34;5.20;83.40
55313;DHT22;46892;45.668;11.756;2023-02-21T03:58:00;5.10;83.40
55313;DHT22;46892;45.668;11.756;2023-02-21T04:00:26;5.10;82.80
55313;DHT22;46892;45.668;11.756;2023-02-21T04:02:52;5.00;82.80
55313;DHT22;46892;45.668;11.756;2023-02-21T04:05:17;4.90;83.60
55313;DHT22;46892;45.668;11.756;2023-02-21T04:07:43;4.80;84.10
55313;DHT22;46892;45.668;11.756;2023-02-21T04:10:09;4.80;84.50
55313;DHT22;46892;45.668;11.756;2023-02-21T04:12:34;4.80;84.70
55313;DHT22;46892;45.668;11.756;2023-02-21T04:15:00;4.80;84.80
55313;DHT22;46892;45.668;11.756;2023-02-21T04:17:26;4.80;84.60
55313;DHT22;46892;45.668;11.756;2023-02-21T04:19:51;4.80;84.70
55313;DHT22;46892;45.668;11.756;2023-02-21T04:22:17;4.80;84.30
55313;DHT22;46892;45.668;11.756;2023-02-21T04:24:43;4.80;83.60
55313;DHT22;46892;45.668;11.756;2023-02-21T04:27:09;4.80;82.90
55313;DHT22;46892;45.668;11.756;2023-02-21T04:29:35;4.80;83.10
55313;DHT22;46892;45.668;11.756;2023-02-21T04:32:00;4.60;82.50
55313;DHT22;46892;45.668;11.756;2023-02-21T04:34:27;4.60;83.80
55313;DHT22;46892;45.668;11.756;2023-02-21T04:36:53;4.60;85.60
55313;DHT22;46892;45.668;11.756;2023-02-21T04:39:19;4.50;86.10
55313;DHT22;46892;45.668;11.756;2023-02-21T04:41:44;4.50;85.80
55313;DHT22;46892;45.668;11.756;2023-02-21T04:44:11;4.40;85.60
55313;DHT22;46892;45.668;11.756;2023-02-21T04:46:37;4.50;85.80
55313;DHT22;46892;45.668;11.756;2023-02-21T04:49:03;4.50;86.10
55313;DHT22;46892;45.668;11.756;2023-02-21T04:51:28;4.50;86.20
55313;DHT22;46892;45.668;11.756;2023-02-21T04:53:54;4.60;86.30
55313;DHT22;46892;45.668;11.756;2023-02-21T04:56:23;4.50;86.00
55313;DHT22;46892;45.668;11.756;2023-02-21T04:58:49;4.50;86.10
55313;DHT22;46892;45.668;11.756;2023-02-21T05:01:17;4.50;86.30
55313;DHT22;46892;45.668;11.756;2023-02-21T05:03:43;4.40;86.40
55313;DHT22;46892;45.668;11.756;2023-02-21T05:06:09;4.50;86.60
55313;DHT22;46892;45.668;11.756;2023-02-21T05:08:35;4.50;86.70
55313;DHT22;46892;45.668;11.756;2023-02-21T05:11:01;4.50;86.90
55313;DHT22;46892;45.668;11.756;2023-02-21T05:13:27;4.60;87.10
55313;DHT22;46892;45.668;11.756;2023-02-21T05:15:53;4.60;87.10
55313;DHT22;46892;45.668;11.756;2023-02-21T05:18:18;4.60;87.20
55313;DHT22;46892;45.668;11.756;2023-02-21T05:20:51;4.80;86.80
55313;DHT22;46892;45.668;11.756;2023-02-21T05:23:17;4.80;86.10
55313;DHT22;46892;45.668;11.756;2023-02-21T05:26:03;4.80;85.70
55313;DHT22;46892;45.668;11.756;2023-02-21T05:28:28;4.80;85.30
55313;DHT22;46892;45.668;11.756;2023-02-21T05:30:54;4.70;83.30
55313;DHT22;46892;45.668;11.756;2023-02-21T05:33:20;4.80;82.00
55313;DHT22;46892;45.668;11.756;2023-02-21T05:35:46;4.60;82.00
55313;DHT22;46892;45.668;11.756;2023-02-21T05:38:13;4.40;83.10
55313;DHT22;46892;45.668;11.756;2023-02-21T05:40:39;4.30;83.40
55313;DHT22;46892;45.668;11.756;2023-02-21T05:43:05;4.20;84.20
55313;DHT22;46892;45.668;11.756;2023-02-21T05:45:30;4.00;84.60
55313;DHT22;46892;45.668;11.756;2023-02-21T05:47:56;3.90;85.30
55313;DHT22;46892;45.668;11.756;2023-02-21T05:50:25;3.80;85.60
55313;DHT22;46892;45.668;11.756;2023-02-21T05:52:51;3.80;86.20
55313;DHT22;46892;45.668;11.756;2023-02-21T05:55:17;3.90;86.50
55313;DHT22;46892;45.668;11.756;2023-02-21T05:57:43;4.00;86.30
55313;DHT22;46892;45.668;11.756;2023-02-21T06:00:23;4.10;85.60
55313;DHT22;46892;45.668;11.756;2023-02-21T06:02:50;4.00;84.60
55313;DHT22;46892;45.668;11.756;2023-02-21T06:05:19;3.90;84.10
55313;DHT22;46892;45.668;11.756;2023-02-21T06:07:46;3.90;84.20
55313;DHT22;46892;45.668;11.756;2023-02-21T06:10:12;3.90;84.40
55313;DHT22;46892;45.668;11.756;2023-02-21T06:12:38;3.90;84.50
55313;DHT22;46892;45.668;11.756;2023-02-21T06:15:04;3.80;84.10
55313;DHT22;46892;45.668;11.756;2023-02-21T06:17:32;3.60;84.10
55313;DHT22;46892;45.668;11.756;2023-02-21T06:19:58;3.30;84.30
55313;DHT22;46892;45.668;11.756;2023-02-21T06:22:24;3.20;85.90
55313;DHT22;46892;45.668;11.756;2023-02-21T06:24:49;3.10;86.70
55313;DHT22;46892;45.668;11.756;2023-02-21T06:27:15;3.20;87.40
55313;DHT22;46892;45.668;11.756;2023-02-21T06:29:40;3.30;87.80
55313;DHT22;46892;45.668;11.756;2023-02-21T06:32:06;3.50;87.80
55313;DHT22;46892;45.668;11.756;2023-02-21T06:34:33;3.60;86.60
55313;DHT22;46892;45.668;11.756;2023-02-21T06:36:58;3.70;85.10
55313;DHT22;46892;45.668;11.756;2023-02-21T06:39:24;3.80;84.00
55313;DHT22;46892;45.668;11.756;2023-02-21T06:41:50;3.70;84.30
55313;DHT22;46892;45.668;11.756;2023-02-21T06:44:16;3.70;84.70
55313;DHT22;46892;45.668;11.756;2023-02-21T06:46:42;3.60;84.90
55313;DHT22;46892;45.668;11.756;2023-02-21T06:49:08;3.60;85.00
55313;DHT22;46892;45.668;11.756;2023-02-21T06:51:36;3.60;85.50
55313;DHT22;46892;45.668;11.756;2023-02-21T06:54:02;3.80;85.80
55313;DHT22;46892;45.668;11.756;2023-02-21T06:56:28;3.90;85.60
55313;DHT22;46892;45.668;11.756;2023-02-21T06:58:54;4.00;83.40
55313;DHT22;46892;45.668;11.756;2023-02-21T07:01:20;4.00;83.60
55313;DHT22;46892;45.668;11.756;2023-02-21T07:03:46;4.00;84.80
55313;DHT22;46892;45.668;11.756;2023-02-21T07:06:12;4.10;85.30
55313;DHT22;46892;45.668;11.756;2023-02-21T07:08:37;4.10;85.50
55313;DHT22;46892;45.668;11.756;2023-02-21T07:11:04;4.20;85.80
55313;DHT22;46892;45.668;11.756;2023-02-21T07:13:30;4.20;85.70
55313;DHT22;46892;45.668;11.756;2023-02-21T07:15:56;4.20;86.00
55313;DHT22;46892;45.668;11.756;2023-02-21T07:18:22;4.10;86.50
55313;DHT22;46892;45.668;11.756;2023-02-21T07:20:48;4.20;86.80
55313;DHT22;46892;45.668;11.756;2023-02-21T07:23:14;4.20;86.70
55313;DHT22;46892;45.668;11.756;2023-02-21T07:25:40;4.20;86.90
55313;DHT22;46892;45.668;11.756;2023-02-21T07:28:06;4.30;87.30
55313;DHT22;46892;45.668;11.756;2023-02-21T07:30:31;4.50;86.90
55313;DHT22;46892;45.668;11.756;2023-02-21T07:32:58;4.50;85.90
55313;DHT22;46892;45.668;11.756;2023-02-21T07:35:24;4.60;86.00
55313;DHT22;46892;45.668;11.756;2023-02-21T07:37:50;4.70;85.70
55313;DHT22;46892;45.668;11.756;2023-02-21T07:40:15;4.80;85.20
55313;DHT22;46892;45.668;11.756;2023-02-21T07:42:42;4.90;83.80
55313;DHT22;46892;45.668;11.756;2023-02-21T07:45:09;4.90;83.90
55313;DHT22;46892;45.668;11.756;2023-02-21T07:47:35;4.90;85.30
55313;DHT22;46892;45.668;11.756;2023-02-21T07:50:01;5.00;85.60
55313;DHT22;46892;45.668;11.756;2023-02-21T07:52:26;5.10;85.60
55313;DHT22;46892;45.668;11.756;2023-02-21T07:54:52;5.20;85.80
55313;DHT22;46892;45.668;11.756;2023-02-21T07:57:18;5.30;85.90
55313;DHT22;46892;45.668;11.756;2023-02-21T07:59:43;5.40;85.70
55313;DHT22;46892;45.668;11.756;2023-02-21T08:02:12;5.50;85.90
55313;DHT22;46892;45.668;11.756;2023-02-21T08:04:38;5.50;85.90
55313;DHT22;46892;45.668;11.756;2023-02-21T08:07:04;5.60;85.90
55313;DHT22;46892;45.668;11.756;2023-02-21T08:09:30;5.70;86.10
55313;DHT22;46892;45.668;11.756;2023-02-21T08:11:58;5.80;86.00
55313;DHT22;46892;45.668;11.756;2023-02-21T08:14:23;5.80;86.10
55313;DHT22;46892;45.668;11.756;2023-02-21T08:16:49;5.80;86.20
55313;DHT22;46892;45.668;11.756;2023-02-21T08:19:15;5.80;86.30
55313;DHT22;46892;45.668;11.756;2023-02-21T08:21:45;5.90;86.30
55313;DHT22;46892;45.668;11.756;2023-02-21T08:24:11;5.90;86.30
55313;DHT22;46892;45.668;11.756;2023-02-21T08:26:37;6.00;86.30
55313;DHT22;46892;45.668;11.756;2023-02-21T08:29:05;6.10;86.00
55313;DHT22;46892;45.668;11.756;2023-02-21T08:31:34;6.20;85.80
55313;DHT22;46892;45.668;11.756;2023-02-21T08:34:00;6.30;85.50
55313;DHT22;46892;45.668;11.756;2023-02-21T08:36:34;6.50;85.50
55313;DHT22;46892;45.668;11.756;2023-02-21T08:39:00;6.50;85.70
55313;DHT22;46892;45.668;11.756;2023-02-21T08:41:33;6.50;85.60
55313;DHT22;46892;45.668;11.756;2023-02-21T08:43:59;6.60;85.50
55313;DHT22;46892;45.668;11.756;2023-02-21T08:46:25;6.60;85.70
55313;DHT22;46892;45.668;11.756;2023-02-21T08:48:51;6.70;86.00
55313;DHT22;46892;45.668;11.756;2023-02-21T08:51:16;6.70;86.00
55313;DHT22;46892;45.668;11.756;2023-02-21T08:53:42;6.80;86.30
55313;DHT22;46892;45.668;11.756;2023-02-21T08:56:08;6.80;85.90
55313;DHT22;46892;45.668;11.756;2023-02-21T08:58:34;6.90;85.80
55313;DHT22;46892;45.668;11.756;2023-02-21T09:00:59;7.00;86.00
55313;DHT22;46892;45.668;11.756;2023-02-21T09:03:25;7.00;85.60
55313;DHT22;46892;45.668;11.756;2023-02-21T09:05:51;7.00;85.80
55313;DHT22;46892;45.668;11.756;2023-02-21T09:08:16;7.00;86.00
55313;DHT22;46892;45.668;11.756;2023-02-21T09:10:45;7.00;86.40
55313;DHT22;46892;45.668;11.756;2023-02-21T09:13:12;7.20;86.90
55313;DHT22;46892;45.668;11.756;2023-02-21T09:15:37;7.30;86.30
55313;DHT22;46892;45.668;11.756;2023-02-21T09:18:03;7.40;85.80
55313;DHT22;46892;45.668;11.756;2023-02-21T09:20:30;7.40;86.10
55313;DHT22;46892;45.668;11.756;2023-02-21T09:22:56;7.50;86.00
55313;DHT22;46892;45.668;11.756;2023-02-21T09:25:24;7.50;86.00
55313;DHT22;46892;45.668;11.756;2023-02-21T09:27:50;7.60;85.70
55313;DHT22;46892;45.668;11.756;2023-02-21T09:30:19;7.80;85.30
55313;DHT22;46892;45.668;11.756;2023-02-21T09:32:46;7.90;85.10
55313;DHT22;46892;45.668;11.756;2023-02-21T09:35:12;8.00;84.90
55313;DHT22;46892;45.668;11.756;2023-02-21T09:37:42;8.10;84.70
55313;DHT22;46892;45.668;11.756;2023-02-21T09:40:23;8.20;84.80
55313;DHT22;46892;45.668;11.756;2023-02-21T09:42:57;8.30;84.30
55313;DHT22;46892;45.668;11.756;2023-02-21T09:45:32;8.40;84.40
55313;DHT22;46892;45.668;11.756;2023-02-21T09:48:04;8.40;83.70
55313;DHT22;46892;45.668;11.756;2023-02-21T09:50:36;8.50;83.30
55313;DHT22;46892;45.668;11.756;2023-02-21T09:53:05;8.50;83.10
55313;DHT22;46892;45.668;11.756;2023-02-21T09:55:39;8.60;83.60
55313;DHT22;46892;45.668;11.756;2023-02-21T09:58:13;8.80;84.00
55313;DHT22;46892;45.668;11.756;2023-02-21T10:00:39;8.80;83.00
55313;DHT22;46892;45.668;11.756;2023-02-21T10:03:14;9.00;83.20
55313;DHT22;46892;45.668;11.756;2023-02-21T10:06:07;9.00;82.60
55313;DHT22;46892;45.668;11.756;2023-02-21T10:11:23;9.20;82.50
55313;DHT22;46892;45.668;11.756;2023-02-21T10:19:30;9.30;81.60
55313;DHT22;46892;45.668;11.756;2023-02-21T10:21:57;9.40;81.70
55313;DHT22;46892;45.668;11.756;2023-02-21T10:24:25;9.50;81.70
55313;DHT22;46892;45.668;11.756;2023-02-21T10:27:06;9.50;81.60
55313;DHT22;46892;45.668;11.756;2023-02-21T10:29:53;9.50;81.70
55313;DHT22;46892;45.668;11.756;2023-02-21T10:32:21;9.50;81.50
55313;DHT22;46892;45.668;11.756;2023-02-21T10:34:49;9.60;82.20
55313;DHT22;46892;45.668;11.756;2023-02-21T10:37:40;9.70;81.80
55313;DHT22;46892;45.668;11.756;2023-02-21T10:42:48;10.00;80.90
55313;DHT22;46892;45.668;11.756;2023-02-21T10:45:17;10.00;80.70
55313;DHT22;46892;45.668;11.756;2023-02-21T10:47:54;10.00;80.70
55313;DHT22;46892;45.668;11.756;2023-02-21T10:53:03;10.20;79.90
55313;DHT22;46892;45.668;11.756;2023-02-21T10:55:28;10.30;80.30
55313;DHT22;46892;45.668;11.756;2023-02-21T10:57:58;10.30;79.20
55313;DHT22;46892;45.668;11.756;2023-02-21T11:00:35;10.30;80.60
55313;DHT22;46892;45.668;11.756;2023-02-21T11:03:11;10.50;79.40
55313;DHT22;46892;45.668;11.756;2023-02-21T11:05:38;10.50;79.40
55313;DHT22;46892;45.668;11.756;2023-02-21T11:08:07;10.50;79.10
55313;DHT22;46892;45.668;11.756;2023-02-21T11:10:43;10.60;78.90
55313;DHT22;46892;45.668;11.756;2023-02-21T11:13:30;10.60;79.30
55313;DHT22;46892;45.668;11.756;2023-02-21T11:18:42;10.70;78.00
55313;DHT22;46892;45.668;11.756;2023-02-21T11:21:14;10.70;77.60
55313;DHT22;46892;45.668;11.756;2023-02-21T11:24:01;10.70;78.60
55313;DHT22;46892;45.668;11.756;2023-02-21T11:26:30;10.70;77.40
55313;DHT22;46892;45.668;11.756;2023-02-21T11:29:23;10.70;76.80
55313;DHT22;46892;45.668;11.756;2023-02-21T11:31:51;10.70;77.30
55313;DHT22;46892;45.668;11.756;2023-02-21T11:34:18;10.70;77.00
55313;DHT22;46892;45.668;11.756;2023-02-21T11:36:45;10.70;77.50
55313;DHT22;46892;45.668;11.756;2023-02-21T11:39:19;10.70;76.40
55313;DHT22;46892;45.668;11.756;2023-02-21T11:41:50;10.80;77.60
55313;DHT22;46892;45.668;11.756;2023-02-21T11:44:35;10.80;77.20
55313;DHT22;46892;45.668;11.756;2023-02-21T11:47:14;10.80;76.80
55313;DHT22;46892;45.668;11.756;2023-02-21T11:50:21;10.80;76.30
55313;DHT22;46892;45.668;11.756;2023-02-21T11:55:26;10.80;76.90
55313;DHT22;46892;45.668;11.756;2023-02-21T12:00:49;10.90;76.30
55313;DHT22;46892;45.668;11.756;2023-02-21T12:03:48;11.00;76.80
55313;DHT22;46892;45.668;11.756;2023-02-21T12:09:14;11.00;75.80
55313;DHT22;46892;45.668;11.756;2023-02-21T12:35:00;11.20;77.00
55313;DHT22;46892;45.668;11.756;2023-02-21T12:40:51;11.30;75.90
55313;DHT22;46892;45.668;11.756;2023-02-21T12:43:39;11.30;76.40
55313;DHT22;46892;45.668;11.756;2023-02-21T12:46:15;11.30;75.80
55313;DHT22;46892;45.668;11.756;2023-02-21T12:48:50;11.30;76.50
55313;DHT22;46892;45.668;11.756;2023-02-21T12:51:23;11.40;75.90
55313;DHT22;46892;45.668;11.756;2023-02-21T12:56:52;11.40;75.70
55313;DHT22;46892;45.668;11.756;2023-02-21T12:59:29;11.30;75.80
55313;DHT22;46892;45.668;11.756;2023-02-21T13:02:22;11.30;75.70
55313;DHT22;46892;45.668;11.756;2023-02-21T13:05:04;11.20;75.80
55313;DHT22;46892;45.668;11.756;2023-02-21T13:07:49;11.30;76.40
55313;DHT22;46892;45.668;11.756;2023-02-21T13:10:17;11.30;75.80
55313;DHT22;46892;45.668;11.756;2023-02-21T13:12:53;11.20;75.70
55313;DHT22;46892;45.668;11.756;2023-02-21T13:15:24;11.20;76.30
55313;DHT22;46892;45.668;11.756;2023-02-21T13:20:21;11.00;76.50
55313;DHT22;46892;45.668;11.756;2023-02-21T13:28:56;11.00;76.90
55313;DHT22;46892;45.668;11.756;2023-02-21T13:31:25;11.00;77.30
55313;DHT22;46892;45.668;11.756;2023-02-21T13:33:59;11.10;77.60
55313;DHT22;46892;45.668;11.756;2023-02-21T13:39:27;11.10;77.00
55313;DHT22;46892;45.668;11.756;2023-02-21T13:42:10;11.10;76.70
55313;DHT22;46892;45.668;11.756;2023-02-21T13:44:46;11.20;76.60
55313;DHT22;46892;45.668;11.756;2023-02-21T13:47:17;11.10;76.40
55313;DHT22;46892;45.668;11.756;2023-02-21T13:49:50;11.10;76.90
55313;DHT22;46892;45.668;11.756;2023-02-21T14:08:35;11.00;77.30
55313;DHT22;46892;45.668;11.756;2023-02-21T14:16:22;11.00;77.40
55313;DHT22;46892;45.668;11.756;2023-02-21T14:18:58;11.00;77.70
55313;DHT22;46892;45.668;11.756;2023-02-21T14:21:35;11.00;77.70
55313;DHT22;46892;45.668;11.756;2023-02-21T14:29:41;11.00;78.30
55313;DHT22;46892;45.668;11.756;2023-02-21T14:37:40;10.90;77.80
55313;DHT22;46892;45.668;11.756;2023-02-21T14:45:36;10.80;78.20
55313;DHT22;46892;45.668;11.756;2023-02-21T15:03:58;11.00;77.80
55313;DHT22;46892;45.668;11.756;2023-02-21T15:06:27;11.00;77.80
55313;DHT22;46892;45.668;11.756;2023-02-21T15:08:53;11.00;77.50
55313;DHT22;46892;45.668;11.756;2023-02-21T15:11:31;11.00;77.60
55313;DHT22;46892;45.668;11.756;2023-02-21T15:16:37;10.90;78.40
55313;DHT22;46892;45.668;11.756;2023-02-21T15:19:03;10.90;78.50
55313;DHT22;46892;45.668;11.756;2023-02-21T15:21:29;10.80;78.30
55313;DHT22;46892;45.668;11.756;2023-02-21T15:24:12;10.80;78.50
55313;DHT22;46892;45.668;11.756;2023-02-21T15:26:39;10.80;78.50
55313;DHT22;46892;45.668;11.756;2023-02-21T15:29:09;10.70;78.50
55313;DHT22;46892;45.668;11.756;2023-02-21T15:31:40;10.70;78.60
55313;DHT22;46892;45.668;11.756;2023-02-21T15:34:31;10.70;78.60
55313;DHT22;46892;45.668;11.756;2023-02-21T15:37:17;10.70;78.40
55313;DHT22;46892;45.668;11.756;2023-02-21T15:39:51;10.70;78.50
55313;DHT22;46892;45.668;11.756;2023-02-21T15:42:17;10.70;78.50
55313;DHT22;46892;45.668;11.756;2023-02-21T15:47:22;10.60;78.70
55313;DHT22;46892;45.668;11.756;2023-02-21T15:57:38;10.60;79.00
55313;DHT22;46892;45.668;11.756;2023-02-21T16:02:45;10.50;78.70
55313;DHT22;46892;45.668;11.756;2023-02-21T16:05:29;10.50;78.80
55313;DHT22;46892;45.668;11.756;2023-02-21T16:08:03;10.50;78.90
55313;DHT22;46892;45.668;11.756;2023-02-21T16:10:29;10.50;78.90
55313;DHT22;46892;45.668;11.756;2023-02-21T16:12:58;10.40;78.80
55313;DHT22;46892;45.668;11.756;2023-02-21T16:15:28;10.40;78.80
55313;DHT22;46892;45.668;11.756;2023-02-21T16:18:09;10.40;78.90
55313;DHT22;46892;45.668;11.756;2023-02-21T16:20:40;10.40;78.80
55313;DHT22;46892;45.668;11.756;2023-02-21T16:28:42;10.30;79.00
55313;DHT22;46892;45.668;11.756;2023-02-21T16:31:22;10.30;79.10
55313;DHT22;46892;45.668;11.756;2023-02-21T16:33:49;10.30;79.10
55313;DHT22;46892;45.668;11.756;2023-02-21T16:36:23;10.30;79.20
55313;DHT22;46892;45.668;11.756;2023-02-21T16:38:49;10.30;79.30
55313;DHT22;46892;45.668;11.756;2023-02-21T16:41:15;10.30;79.30
55313;DHT22;46892;45.668;11.756;2023-02-21T16:43:40;10.30;79.60
55313;DHT22;46892;45.668;11.756;2023-02-21T16:46:06;10.20;79.60
55313;DHT22;46892;45.668;11.756;2023-02-21T16:48:32;10.30;79.60
55313;DHT22;46892;45.668;11.756;2023-02-21T16:51:00;10.30;79.50
55313;DHT22;46892;45.668;11.756;2023-02-21T16:53:27;10.30;79.40
55313;DHT22;46892;45.668;11.756;2023-02-21T16:55:54;10.30;79.70
55313;DHT22;46892;45.668;11.756;2023-02-21T16:58:31;10.30;80.00
55313;DHT22;46892;45.668;11.756;2023-02-21T17:01:00;10.40;80.30
55313;DHT22;46892;45.668;11.756;2023-02-21T17:03:27;10.30;80.00
55313;DHT22;46892;45.668;11.756;2023-02-21T17:05:57;10.30;79.90
55313;DHT22;46892;45.668;11.756;2023-02-21T17:08:23;10.30;79.90
55313;DHT22;46892;45.668;11.756;2023-02-21T17:10:50;10.20;79.90
55313;DHT22;46892;45.668;11.756;2023-02-21T17:13:16;10.10;80.10
55313;DHT22;46892;45.668;11.756;2023-02-21T17:15:41;10.00;80.40
55313;DHT22;46892;45.668;11.756;2023-02-21T17:18:07;10.00;80.60
55313;DHT22;46892;45.668;11.756;2023-02-21T17:20:33;10.00;80.60
55313;DHT22;46892;45.668;11.756;2023-02-21T17:22:59;9.90;80.60
55313;DHT22;46892;45.668;11.756;2023-02-21T17:25:25;9.90;80.70
55313;DHT22;46892;45.668;11.756;2023-02-21T17:27:51;10.00;80.60
55313;DHT22;46892;45.668;11.756;2023-02-21T17:30:19;10.10;80.70
55313;DHT22;46892;45.668;11.756;2023-02-21T17:32:45;10.10;80.60
55313;DHT22;46892;45.668;11.756;2023-02-21T17:35:12;10.20;80.50
55313;DHT22;46892;45.668;11.756;2023-02-21T17:37:40;10.30;80.10
55313;DHT22;46892;45.668;11.756;2023-02-21T17:40:07;10.30;80.00
55313;DHT22;46892;45.668;11.756;2023-02-21T17:42:33;10.20;80.10
55313;DHT22;46892;45.668;11.756;2023-02-21T17:44:58;10.00;80.20
55313;DHT22;46892;45.668;11.756;2023-02-21T17:47:27;9.90;80.40
55313;DHT22;46892;45.668;11.756;2023-02-21T17:49:52;10.00;80.50
55313;DHT22;46892;45.668;11.756;2023-02-21T17:52:19;9.90;80.60
55313;DHT22;46892;45.668;11.756;2023-02-21T17:54:45;9.90;80.70
55313;DHT22;46892;45.668;11.756;2023-02-21T17:57:11;10.00;80.60
55313;DHT22;46892;45.668;11.756;2023-02-21T17:59:37;9.90;80.80
55313;DHT22;46892;45.668;11.756;2023-02-21T18:02:04;9.90;80.90
55313;DHT22;46892;45.668;11.756;2023-02-21T18:04:30;9.90;80.80
55313;DHT22;46892;45.668;11.756;2023-02-21T18:06:57;9.80;81.40
55313;DHT22;46892;45.668;11.756;2023-02-21T18:09:22;9.70;81.70
55313;DHT22;46892;45.668;11.756;2023-02-21T18:11:53;9.60;82.00
55313;DHT22;46892;45.668;11.756;2023-02-21T18:14:20;9.60;82.20
55313;DHT22;46892;45.668;11.756;2023-02-21T18:16:46;9.60;82.10
55313;DHT22;46892;45.668;11.756;2023-02-21T18:19:12;9.70;82.00
55313;DHT22;46892;45.668;11.756;2023-02-21T18:21:37;9.70;82.00
55313;DHT22;46892;45.668;11.756;2023-02-21T18:24:09;9.60;82.10
55313;DHT22;46892;45.668;11.756;2023-02-21T18:26:36;9.60;82.20
55313;DHT22;46892;45.668;11.756;2023-02-21T18:29:03;9.60;82.10
55313;DHT22;46892;45.668;11.756;2023-02-21T18:31:29;9.70;82.00
55313;DHT22;46892;45.668;11.756;2023-02-21T18:33:55;9.60;82.00
55313;DHT22;46892;45.668;11.756;2023-02-21T18:36:20;9.60;82.00
55313;DHT22;46892;45.668;11.756;2023-02-21T18:38:46;9.50;82.30
55313;DHT22;46892;45.668;11.756;2023-02-21T18:41:15;9.40;82.90
55313;DHT22;46892;45.668;11.756;2023-02-21T18:43:41;9.30;83.10
55313;DHT22;46892;45.668;11.756;2023-02-21T18:46:16;9.40;83.10
55313;DHT22;46892;45.668;11.756;2023-02-21T18:48:48;9.50;82.90